sensor_id;sensor_type;location;lat;lon;timestamp;pressure;altitude;pressure_sealevel;temperature;humidity
57616;BME280;43816;52.054;-9.494;2023-01-30T00:00:08;102266.69;;;18.81;48.39
57616;BME280;43816;52.054;-9.494;2023-01-30T00:00:19;102198.22;;;18.44;48.36
57616;BME280;43816;52.054;-9.494;2023-01-30T00:00:33;102151.72;;;18.15;48.25
57616;BME280;43816;52.054;-9.494;2023-01-30T00:00:44;102223.53;;;18.56;48.36
57616;BME280;43816;52.054;-9.494;2023-01-30T00:00:56;102139.38;;;18.10;48.20
57616;BME280;43816;52.054;-9.494;2023-01-30T00:01:14;102160.47;;;18.18;48.46
57616;BME280;43816;52.054;-9.494;2023-01-30T00:01:30;102221.53;;;18.58;48.26
57616;BME280;43816;52.054;-9.494;2023-01-30T00:01:41;102175.91;;;18.29;48.44
57616;BME280;43816;52.054;-9.494;2023-01-30T00:01:52;102216.59;;;18.52;48.54
57616;BME280;43816;52.054;-9.494;2023-01-30T00:02:05;102156.91;;;18.18;48.26
57616;BME280;43816;52.054;-9.494;2023-01-30T00:02:18;102156.75;;;18.19;48.45
57616;BME280;43816;52.054;-9.494;2023-01-30T00:02:28;102146.41;;;18.13;48.36
57616;BME280;43816;52.054;-9.494;2023-01-30T00:02:41;102181.34;;;18.29;48.28
57616;BME280;43816;52.054;-9.494;2023-01-30T00:02:53;102219.06;;;18.55;48.33
57616;BME280;43816;52.054;-9.494;2023-01-30T00:03:03;102162.81;;;18.23;48.23
57616;BME280;43816;52.054;-9.494;2023-01-30T00:03:14;102157.16;;;18.15;48.22
57616;BME280;43816;52.054;-9.494;2023-01-30T00:03:24;102228.44;;;18.62;48.20
57616;BME280;43816;52.054;-9.494;2023-01-30T00:03:35;102165.53;;;18.23;48.25
57616;BME280;43816;52.054;-9.494;2023-01-30T00:03:45;102142.50;;;18.06;48.26
57616;BME280;43816;52.054;-9.494;2023-01-30T00:03:55;102216.47;;;18.53;48.29
57616;BME280;43816;52.054;-9.494;2023-01-30T00:04:06;102265.72;;;18.82;48.35
57616;BME280;43816;52.054;-9.494;2023-01-30T00:04:16;102222.94;;;18.52;48.28
57616;BME280;43816;52.054;-9.494;2023-01-30T00:04:26;102258.06;;;18.76;48.32
57616;BME280;43816;52.054;-9.494;2023-01-30T00:04:37;102162.47;;;18.16;48.35
57616;BME280;43816;52.054;-9.494;2023-01-30T00:04:47;102271.91;;;18.84;48.34
57616;BME280;43816;52.054;-9.494;2023-01-30T00:04:57;102224.50;;;18.55;48.33
57616;BME280;43816;52.054;-9.494;2023-01-30T00:05:08;102263.97;;;18.81;48.30
57616;BME280;43816;52.054;-9.494;2023-01-30T00:05:18;102261.25;;;18.81;48.42
57616;BME280;43816;52.054;-9.494;2023-01-30T00:05:28;102163.06;;;18.20;48.33
57616;BME280;43816;52.054;-9.494;2023-01-30T00:05:41;102173.56;;;18.24;48.38
57616;BME280;43816;52.054;-9.494;2023-01-30T00:05:52;102246.84;;;18.70;48.41
57616;BME280;43816;52.054;-9.494;2023-01-30T00:06:03;102165.66;;;18.21;48.62
57616;BME280;43816;52.054;-9.494;2023-01-30T00:06:14;102209.56;;;18.49;48.32
57616;BME280;43816;52.054;-9.494;2023-01-30T00:06:24;102232.16;;;18.61;48.31
57616;BME280;43816;52.054;-9.494;2023-01-30T00:06:35;102254.34;;;18.77;48.38
57616;BME280;43816;52.054;-9.494;2023-01-30T00:06:45;102207.69;;;18.49;48.19
57616;BME280;43816;52.054;-9.494;2023-01-30T00:06:55;102265.72;;;18.82;48.32
57616;BME280;43816;52.054;-9.494;2023-01-30T00:07:06;102273.78;;;18.84;48.37
57616;BME280;43816;52.054;-9.494;2023-01-30T00:07:16;102185.53;;;18.33;48.37
57616;BME280;43816;52.054;-9.494;2023-01-30T00:07:26;102201.34;;;18.39;48.11
57616;BME280;43816;52.054;-9.494;2023-01-30T00:07:36;102225.22;;;18.57;48.27
57616;BME280;43816;52.054;-9.494;2023-01-30T00:07:47;102234.63;;;18.64;48.38
57616;BME280;43816;52.054;-9.494;2023-01-30T00:07:57;102187.84;;;18.38;48.40
57616;BME280;43816;52.054;-9.494;2023-01-30T00:08:07;102176.88;;;18.28;48.28
57616;BME280;43816;52.054;-9.494;2023-01-30T00:08:18;102173.19;;;18.29;48.28
57616;BME280;43816;52.054;-9.494;2023-01-30T00:08:28;102188.84;;;18.37;48.19
57616;BME280;43816;52.054;-9.494;2023-01-30T00:08:41;102160.81;;;18.25;48.34
57616;BME280;43816;52.054;-9.494;2023-01-30T00:08:51;102171.97;;;18.22;48.42
57616;BME280;43816;52.054;-9.494;2023-01-30T00:09:02;102237.09;;;18.67;48.32
57616;BME280;43816;52.054;-9.494;2023-01-30T00:09:13;102220.22;;;18.52;48.11
57616;BME280;43816;52.054;-9.494;2023-01-30T00:09:23;102189.72;;;18.37;48.21
57616;BME280;43816;52.054;-9.494;2023-01-30T00:09:34;102229.56;;;18.59;47.99
57616;BME280;43816;52.054;-9.494;2023-01-30T00:09:44;102153.31;;;18.17;48.35
57616;BME280;43816;52.054;-9.494;2023-01-30T00:09:54;102266.97;;;18.78;48.25
57616;BME280;43816;52.054;-9.494;2023-01-30T00:10:05;102266.69;;;18.81;48.16
57616;BME280;43816;52.054;-9.494;2023-01-30T00:10:18;102230.75;;;18.66;48.35
57616;BME280;43816;52.054;-9.494;2023-01-30T00:10:28;102217.06;;;18.57;48.25
57616;BME280;43816;52.054;-9.494;2023-01-30T00:10:39;102182.06;;;18.31;48.18
57616;BME280;43816;52.054;-9.494;2023-01-30T00:10:49;102253.19;;;18.80;48.30
57616;BME280;43816;52.054;-9.494;2023-01-30T00:11:07;102197.06;;;18.46;48.09
57616;BME280;43816;52.054;-9.494;2023-01-30T00:11:19;102191.28;;;18.40;48.09
57616;BME280;43816;52.054;-9.494;2023-01-30T00:11:30;102138.91;;;18.05;48.38
57616;BME280;43816;52.054;-9.494;2023-01-30T00:11:40;102124.53;;;18.03;48.21
57616;BME280;43816;52.054;-9.494;2023-01-30T00:11:50;102142.09;;;18.10;48.27
57616;BME280;43816;52.054;-9.494;2023-01-30T00:12:01;102189.44;;;18.40;48.28
57616;BME280;43816;52.054;-9.494;2023-01-30T00:12:11;102169.44;;;18.30;48.48
57616;BME280;43816;52.054;-9.494;2023-01-30T00:12:21;102206.84;;;18.49;48.08
57616;BME280;43816;52.054;-9.494;2023-01-30T00:12:32;102145.53;;;18.12;48.26
57616;BME280;43816;52.054;-9.494;2023-01-30T00:12:42;102113.44;;;17.95;48.20
57616;BME280;43816;52.054;-9.494;2023-01-30T00:12:52;102212.31;;;18.49;48.36
57616;BME280;43816;52.054;-9.494;2023-01-30T00:13:02;102149.72;;;18.17;48.01
57616;BME280;43816;52.054;-9.494;2023-01-30T00:13:14;102242.84;;;18.74;48.37
57616;BME280;43816;52.054;-9.494;2023-01-30T00:13:24;102233.47;;;18.66;48.32
57616;BME280;43816;52.054;-9.494;2023-01-30T00:13:35;102239.06;;;18.65;48.30
57616;BME280;43816;52.054;-9.494;2023-01-30T00:13:50;102196.75;;;18.40;48.19
57616;BME280;43816;52.054;-9.494;2023-01-30T00:14:00;102155.44;;;18.14;47.96
57616;BME280;43816;52.054;-9.494;2023-01-30T00:14:11;102173.19;;;18.29;48.24
57616;BME280;43816;52.054;-9.494;2023-01-30T00:14:21;102197.50;;;18.42;48.26
57616;BME280;43816;52.054;-9.494;2023-01-30T00:14:31;102184.66;;;18.33;48.21
57616;BME280;43816;52.054;-9.494;2023-01-30T00:14:42;102184.66;;;18.33;48.29
57616;BME280;43816;52.054;-9.494;2023-01-30T00:14:52;102215.75;;;18.51;48.26
57616;BME280;43816;52.054;-9.494;2023-01-30T00:15:02;102250.16;;;18.73;48.19
57616;BME280;43816;52.054;-9.494;2023-01-30T00:15:13;102256.81;;;18.80;48.08
57616;BME280;43816;52.054;-9.494;2023-01-30T00:15:23;102233.34;;;18.68;48.24
57616;BME280;43816;52.054;-9.494;2023-01-30T00:15:33;102241.50;;;18.68;48.17
57616;BME280;43816;52.054;-9.494;2023-01-30T00:15:47;102164.81;;;18.21;48.60
57616;BME280;43816;52.054;-9.494;2023-01-30T00:16:01;102222.50;;;18.57;47.87
57616;BME280;43816;52.054;-9.494;2023-01-30T00:16:11;102171.31;;;18.29;48.31
57616;BME280;43816;52.054;-9.494;2023-01-30T00:16:22;102194.91;;;18.40;48.17
57616;BME280;43816;52.054;-9.494;2023-01-30T00:16:32;102210.69;;;18.46;48.19
57616;BME280;43816;52.054;-9.494;2023-01-30T00:16:42;102251.03;;;18.74;48.05
57616;BME280;43816;52.054;-9.494;2023-01-30T00:16:53;102262.41;;;18.79;48.14
57616;BME280;43816;52.054;-9.494;2023-01-30T00:17:03;102191.16;;;18.41;48.23
57616;BME280;43816;52.054;-9.494;2023-01-30T00:17:13;102255.47;;;18.75;47.99
57616;BME280;43816;52.054;-9.494;2023-01-30T00:17:24;102262.41;;;18.79;48.15
57616;BME280;43816;52.054;-9.494;2023-01-30T00:17:35;102229.31;;;18.62;48.40
57616;BME280;43816;52.054;-9.494;2023-01-30T00:17:45;102202.78;;;18.43;48.13
57616;BME280;43816;52.054;-9.494;2023-01-30T00:17:55;102249.44;;;18.71;48.10
57616;BME280;43816;52.054;-9.494;2023-01-30T00:18:06;102247.56;;;18.72;47.97
57616;BME280;43816;52.054;-9.494;2023-01-30T00:18:16;102253.75;;;18.74;47.95
57616;BME280;43816;52.054;-9.494;2023-01-30T00:18:26;102245.13;;;18.68;48.16
57616;BME280;43816;52.054;-9.494;2023-01-30T00:18:39;102261.50;;;18.78;48.15
57616;BME280;43816;52.054;-9.494;2023-01-30T00:18:49;102217.50;;;18.52;48.21
57616;BME280;43816;52.054;-9.494;2023-01-30T00:19:00;102216.72;;;18.50;48.24
57616;BME280;43816;52.054;-9.494;2023-01-30T00:19:10;102242.53;;;18.67;48.02
57616;BME280;43816;52.054;-9.494;2023-01-30T00:19:20;102230.69;;;18.57;48.19
57616;BME280;43816;52.054;-9.494;2023-01-30T00:19:30;102259.22;;;18.74;48.20
57616;BME280;43816;52.054;-9.494;2023-01-30T00:19:41;102258.47;;;18.72;48.17
57616;BME280;43816;52.054;-9.494;2023-01-30T00:19:51;102248.31;;;18.74;48.12
57616;BME280;43816;52.054;-9.494;2023-01-30T00:20:02;102262.66;;;18.76;48.02
57616;BME280;43816;52.054;-9.494;2023-01-30T00:20:12;102265.38;;;18.76;48.33
57616;BME280;43816;52.054;-9.494;2023-01-30T00:20:22;102230.28;;;18.61;48.21
57616;BME280;43816;52.054;-9.494;2023-01-30T00:20:33;102218.00;;;18.46;48.39
57616;BME280;43816;52.054;-9.494;2023-01-30T00:20:43;102160.59;;;18.17;48.41
57616;BME280;43816;52.054;-9.494;2023-01-30T00:20:58;102256.34;;;18.75;48.08
57616;BME280;43816;52.054;-9.494;2023-01-30T00:21:11;102266.25;;;18.76;48.19
57616;BME280;43816;52.054;-9.494;2023-01-30T00:21:22;102257.47;;;18.73;48.03
57616;BME280;43816;52.054;-9.494;2023-01-30T00:21:32;102260.34;;;18.71;48.38
57616;BME280;43816;52.054;-9.494;2023-01-30T00:21:42;102252.16;;;18.71;48.04
57616;BME280;43816;52.054;-9.494;2023-01-30T00:21:52;102257.34;;;18.74;48.20
57616;BME280;43816;52.054;-9.494;2023-01-30T00:22:03;102243.38;;;18.67;48.23
57616;BME280;43816;52.054;-9.494;2023-01-30T00:22:13;102248.84;;;18.67;48.14
57616;BME280;43816;52.054;-9.494;2023-01-30T00:22:23;102206.53;;;18.42;48.21
57616;BME280;43816;52.054;-9.494;2023-01-30T00:22:34;102199.34;;;18.41;47.87
57616;BME280;43816;52.054;-9.494;2023-01-30T00:22:44;102197.00;;;18.37;48.23
57616;BME280;43816;52.054;-9.494;2023-01-30T00:22:54;102227.38;;;18.53;48.21
57616;BME280;43816;52.054;-9.494;2023-01-30T00:23:05;102241.19;;;18.61;48.00
57616;BME280;43816;52.054;-9.494;2023-01-30T00:23:15;102213.88;;;18.52;48.23
57616;BME280;43816;52.054;-9.494;2023-01-30T00:23:26;102213.88;;;18.52;48.30
57616;BME280;43816;52.054;-9.494;2023-01-30T00:23:37;102265.53;;;18.74;48.32
57616;BME280;43816;52.054;-9.494;2023-01-30T00:23:47;102149.25;;;18.11;48.30
57616;BME280;43816;52.054;-9.494;2023-01-30T00:23:58;102199.59;;;18.38;48.62
57616;BME280;43816;52.054;-9.494;2023-01-30T00:24:08;102174.69;;;18.22;48.18
57616;BME280;43816;52.054;-9.494;2023-01-30T00:24:18;102159.56;;;18.08;48.13
57616;BME280;43816;52.054;-9.494;2023-01-30T00:24:28;102161.28;;;18.09;48.50
57616;BME280;43816;52.054;-9.494;2023-01-30T00:24:44;102172.97;;;18.21;48.11
57616;BME280;43816;52.054;-9.494;2023-01-30T00:24:54;102210.97;;;18.43;48.37
57616;BME280;43816;52.054;-9.494;2023-01-30T00:25:05;102225.78;;;18.51;48.18
57616;BME280;43816;52.054;-9.494;2023-01-30T00:25:16;102241.91;;;18.63;48.13
57616;BME280;43816;52.054;-9.494;2023-01-30T00:25:27;102232.16;;;18.61;48.30
57616;BME280;43816;52.054;-9.494;2023-01-30T00:25:37;102154.56;;;18.13;48.07
57616;BME280;43816;52.054;-9.494;2023-01-30T00:25:47;102229.56;;;18.59;47.87
57616;BME280;43816;52.054;-9.494;2023-01-30T00:25:58;102260.91;;;18.75;48.19
57616;BME280;43816;52.054;-9.494;2023-01-30T00:26:09;102185.91;;;18.28;47.97
57616;BME280;43816;52.054;-9.494;2023-01-30T00:26:20;102245.25;;;18.67;48.10
57616;BME280;43816;52.054;-9.494;2023-01-30T00:26:30;102255.00;;;18.70;48.15
57616;BME280;43816;52.054;-9.494;2023-01-30T00:26:40;102253.91;;;18.72;48.11
57616;BME280;43816;52.054;-9.494;2023-01-30T00:26:50;102256.34;;;18.75;48.15
57616;BME280;43816;52.054;-9.494;2023-01-30T00:27:01;102255.59;;;18.73;48.47
57616;BME280;43816;52.054;-9.494;2023-01-30T00:27:11;102255.72;;;18.72;48.22
57616;BME280;43816;52.054;-9.494;2023-01-30T00:27:21;102246.25;;;18.66;48.00
57616;BME280;43816;52.054;-9.494;2023-01-30T00:27:32;102258.59;;;18.70;48.12
57616;BME280;43816;52.054;-9.494;2023-01-30T00:27:42;102214.31;;;18.47;48.15
57616;BME280;43816;52.054;-9.494;2023-01-30T00:27:52;102209.38;;;18.41;48.11
57616;BME280;43816;52.054;-9.494;2023-01-30T00:28:03;102249.69;;;18.68;48.21
57616;BME280;43816;52.054;-9.494;2023-01-30T00:28:13;102265.53;;;18.74;48.25
57616;BME280;43816;52.054;-9.494;2023-01-30T00:28:23;102263.78;;;18.73;48.20
57616;BME280;43816;52.054;-9.494;2023-01-30T00:28:34;102256.63;;;18.72;48.13
57616;BME280;43816;52.054;-9.494;2023-01-30T00:28:44;102261.47;;;18.68;48.07
57616;BME280;43816;52.054;-9.494;2023-01-30T00:28:55;102256.03;;;18.68;48.14
57616;BME280;43816;52.054;-9.494;2023-01-30T00:29:05;102258.59;;;18.70;48.10
57616;BME280;43816;52.054;-9.494;2023-01-30T00:29:15;102256.88;;;18.69;47.99
57616;BME280;43816;52.054;-9.494;2023-01-30T00:29:26;102203.22;;;18.39;48.16
57616;BME280;43816;52.054;-9.494;2023-01-30T00:29:36;102252.56;;;18.66;48.11
57616;BME280;43816;52.054;-9.494;2023-01-30T00:29:46;102205.06;;;18.38;48.22
57616;BME280;43816;52.054;-9.494;2023-01-30T00:29:56;102251.69;;;18.66;48.01
57616;BME280;43816;52.054;-9.494;2023-01-30T00:30:07;102237.16;;;18.56;47.96
57616;BME280;43816;52.054;-9.494;2023-01-30T00:30:18;102206.78;;;18.39;48.11
57616;BME280;43816;52.054;-9.494;2023-01-30T00:30:29;102248.97;;;18.66;48.34
57616;BME280;43816;52.054;-9.494;2023-01-30T00:30:39;102216.56;;;18.42;48.29
57616;BME280;43816;52.054;-9.494;2023-01-30T00:30:51;102256.75;;;18.71;48.03
57616;BME280;43816;52.054;-9.494;2023-01-30T00:31:01;102210.50;;;18.38;48.20
57616;BME280;43816;52.054;-9.494;2023-01-30T00:31:12;102205.19;;;18.37;48.17
57616;BME280;43816;52.054;-9.494;2023-01-30T00:31:22;102207.06;;;18.36;48.17
57616;BME280;43816;52.054;-9.494;2023-01-30T00:31:32;102213.97;;;18.40;48.04
57616;BME280;43816;52.054;-9.494;2023-01-30T00:31:43;102250.25;;;18.62;48.22
57616;BME280;43816;52.054;-9.494;2023-01-30T00:31:56;102243.06;;;18.61;48.18
57616;BME280;43816;52.054;-9.494;2023-01-30T00:32:06;102217.44;;;18.42;48.02
57616;BME280;43816;52.054;-9.494;2023-01-30T00:32:17;102194.72;;;18.32;48.08
57616;BME280;43816;52.054;-9.494;2023-01-30T00:32:27;102186.94;;;18.27;48.13
57616;BME280;43816;52.054;-9.494;2023-01-30T00:32:37;102165.34;;;18.15;47.98
57616;BME280;43816;52.054;-9.494;2023-01-30T00:32:53;102262.22;;;18.71;48.08
57616;BME280;43816;52.054;-9.494;2023-01-30T00:33:03;102241.31;;;18.60;48.06
57616;BME280;43816;52.054;-9.494;2023-01-30T00:33:13;102254.16;;;18.69;47.72
57616;BME280;43816;52.054;-9.494;2023-01-30T00:33:25;102259.75;;;18.67;47.90
57616;BME280;43816;52.054;-9.494;2023-01-30T00:33:36;102259.16;;;18.64;47.94
57616;BME280;43816;52.054;-9.494;2023-01-30T00:33:47;102236.88;;;18.59;48.08
57616;BME280;43816;52.054;-9.494;2023-01-30T00:33:57;102213.53;;;18.45;47.97
57616;BME280;43816;52.054;-9.494;2023-01-30T00:34:07;102233.28;;;18.58;47.84
57616;BME280;43816;52.054;-9.494;2023-01-30T00:34:18;102253.44;;;18.67;48.12
57616;BME280;43816;52.054;-9.494;2023-01-30T00:34:28;102213.97;;;18.40;47.72
57616;BME280;43816;52.054;-9.494;2023-01-30T00:34:38;102201.00;;;18.33;47.86
57616;BME280;43816;52.054;-9.494;2023-01-30T00:34:48;102251.84;;;18.64;47.85
57616;BME280;43816;52.054;-9.494;2023-01-30T00:34:59;102254.16;;;18.69;47.68
57616;BME280;43816;52.054;-9.494;2023-01-30T00:35:09;102234.56;;;18.54;47.66
57616;BME280;43816;52.054;-9.494;2023-01-30T00:35:19;102256.16;;;18.67;47.83
57616;BME280;43816;52.054;-9.494;2023-01-30T00:35:29;102256.28;;;18.65;48.08
57616;BME280;43816;52.054;-9.494;2023-01-30T00:35:48;102255.41;;;18.65;48.00
57616;BME280;43816;52.054;-9.494;2023-01-30T00:36:00;102267.78;;;18.69;47.96
57616;BME280;43816;52.054;-9.494;2023-01-30T00:36:11;102254.28;;;18.67;48.04
57616;BME280;43816;52.054;-9.494;2023-01-30T00:36:21;102250.97;;;18.64;47.62
57616;BME280;43816;52.054;-9.494;2023-01-30T00:36:31;102251.09;;;18.62;47.87
57616;BME280;43816;52.054;-9.494;2023-01-30T00:36:41;102256.03;;;18.68;48.06
57616;BME280;43816;52.054;-9.494;2023-01-30T00:36:52;102248.50;;;18.61;47.97
57616;BME280;43816;52.054;-9.494;2023-01-30T00:37:02;102253.69;;;18.64;47.74
57616;BME280;43816;52.054;-9.494;2023-01-30T00:37:13;102245.06;;;18.59;47.95
57616;BME280;43816;52.054;-9.494;2023-01-30T00:37:24;102266.94;;;18.68;47.73
57616;BME280;43816;52.054;-9.494;2023-01-30T00:37:34;102252.09;;;18.61;48.00
57616;BME280;43816;52.054;-9.494;2023-01-30T00:37:44;102253.84;;;18.62;48.14
57616;BME280;43816;52.054;-9.494;2023-01-30T00:37:55;102264.34;;;18.67;47.79
57616;BME280;43816;52.054;-9.494;2023-01-30T00:38:06;102250.84;;;18.65;47.82
57616;BME280;43816;52.054;-9.494;2023-01-30T00:38:17;102266.94;;;18.68;47.92
57616;BME280;43816;52.054;-9.494;2023-01-30T00:38:27;102211.91;;;18.33;47.82
57616;BME280;43816;52.054;-9.494;2023-01-30T00:38:38;102264.47;;;18.65;48.04
57616;BME280;43816;52.054;-9.494;2023-01-30T00:38:48;102264.59;;;18.64;47.74
57616;BME280;43816;52.054;-9.494;2023-01-30T00:38:58;102266.94;;;18.68;47.66
57616;BME280;43816;52.054;-9.494;2023-01-30T00:39:08;102267.19;;;18.65;47.32
57616;BME280;43816;52.054;-9.494;2023-01-30T00:39:19;102261.63;;;18.67;47.80
57616;BME280;43816;52.054;-9.494;2023-01-30T00:39:29;102251.84;;;18.64;47.71
57616;BME280;43816;52.054;-9.494;2023-01-30T00:39:39;102253.97;;;18.61;48.00
57616;BME280;43816;52.054;-9.494;2023-01-30T00:39:50;102204.13;;;18.28;48.05
57616;BME280;43816;52.054;-9.494;2023-01-30T00:40:00;102261.28;;;18.60;47.92
57616;BME280;43816;52.054;-9.494;2023-01-30T00:40:10;102188.59;;;18.19;47.76
57616;BME280;43816;52.054;-9.494;2023-01-30T00:40:21;102244.59;;;18.54;47.91
57616;BME280;43816;52.054;-9.494;2023-01-30T00:40:31;102183.53;;;18.14;47.81
57616;BME280;43816;52.054;-9.494;2023-01-30T00:40:41;102236.69;;;18.51;47.77
57616;BME280;43816;52.054;-9.494;2023-01-30T00:40:52;102216.09;;;18.37;48.05
57616;BME280;43816;52.054;-9.494;2023-01-30T00:41:02;102266.44;;;18.63;47.60
57616;BME280;43816;52.054;-9.494;2023-01-30T00:41:12;102255.09;;;18.58;47.90
57616;BME280;43816;52.054;-9.494;2023-01-30T00:41:23;102247.03;;;18.57;48.13
57616;BME280;43816;52.054;-9.494;2023-01-30T00:41:33;102215.34;;;18.35;47.74
57616;BME280;43816;52.054;-9.494;2023-01-30T00:41:43;102248.31;;;18.53;47.70
57616;BME280;43816;52.054;-9.494;2023-01-30T00:41:54;102250.78;;;18.56;47.94
57616;BME280;43816;52.054;-9.494;2023-01-30T00:42:04;102250.78;;;18.56;47.85
57616;BME280;43816;52.054;-9.494;2023-01-30T00:42:14;102198.22;;;18.23;47.73
57616;BME280;43816;52.054;-9.494;2023-01-30T00:42:25;102206.13;;;18.26;48.07
57616;BME280;43816;52.054;-9.494;2023-01-30T00:42:35;102251.03;;;18.53;47.90
57616;BME280;43816;52.054;-9.494;2023-01-30T00:42:45;102272.66;;;18.65;47.92
57616;BME280;43816;52.054;-9.494;2023-01-30T00:42:55;102216.38;;;18.34;47.81
57616;BME280;43816;52.054;-9.494;2023-01-30T00:43:06;102278.97;;;18.66;47.85
57616;BME280;43816;52.054;-9.494;2023-01-30T00:43:19;102213.03;;;18.30;47.67
57616;BME280;43816;52.054;-9.494;2023-01-30T00:43:29;102256.09;;;18.57;47.79
57616;BME280;43816;52.054;-9.494;2023-01-30T00:43:39;102196.00;;;18.17;47.58
57616;BME280;43816;52.054;-9.494;2023-01-30T00:43:50;102241.25;;;18.50;47.27
57616;BME280;43816;52.054;-9.494;2023-01-30T00:44:00;102271.91;;;18.63;47.71
57616;BME280;43816;52.054;-9.494;2023-01-30T00:44:10;102258.25;;;18.54;47.61
57616;BME280;43816;52.054;-9.494;2023-01-30T00:44:20;102203.66;;;18.23;47.72
57616;BME280;43816;52.054;-9.494;2023-01-30T00:44:31;102226.00;;;18.38;47.74
57616;BME280;43816;52.054;-9.494;2023-01-30T00:44:41;102268.19;;;18.64;47.76
57616;BME280;43816;52.054;-9.494;2023-01-30T00:44:51;102210.44;;;18.28;47.76
57616;BME280;43816;52.054;-9.494;2023-01-30T00:45:02;102251.91;;;18.53;47.78
57616;BME280;43816;52.054;-9.494;2023-01-30T00:45:12;102270.44;;;18.59;47.67
57616;BME280;43816;52.054;-9.494;2023-01-30T00:45:22;102207.88;;;18.27;47.64
57616;BME280;43816;52.054;-9.494;2023-01-30T00:45:33;102268.31;;;18.63;47.71
57616;BME280;43816;52.054;-9.494;2023-01-30T00:45:44;102264.88;;;18.61;47.60
57616;BME280;43816;52.054;-9.494;2023-01-30T00:45:55;102227.72;;;18.39;47.53
57616;BME280;43816;52.054;-9.494;2023-01-30T00:46:14;102269.34;;;18.62;47.62
57616;BME280;43816;52.054;-9.494;2023-01-30T00:46:30;102270.31;;;18.61;47.63
57616;BME280;43816;52.054;-9.494;2023-01-30T00:46:41;102241.44;;;18.48;47.72
57616;BME280;43816;52.054;-9.494;2023-01-30T00:46:51;102266.59;;;18.62;47.61
57616;BME280;43816;52.054;-9.494;2023-01-30T00:47:02;102268.31;;;18.63;47.57
57616;BME280;43816;52.054;-9.494;2023-01-30T00:47:13;102254.50;;;18.55;47.74
57616;BME280;43816;52.054;-9.494;2023-01-30T00:47:23;102248.72;;;18.48;47.57
57616;BME280;43816;52.054;-9.494;2023-01-30T00:47:33;102274.50;;;18.65;47.64
57616;BME280;43816;52.054;-9.494;2023-01-30T00:47:44;102268.59;;;18.60;47.56
57616;BME280;43816;52.054;-9.494;2023-01-30T00:47:54;102270.31;;;18.61;47.84
57616;BME280;43816;52.054;-9.494;2023-01-30T00:48:05;102263.13;;;18.60;47.71
57616;BME280;43816;52.054;-9.494;2023-01-30T00:48:15;102265.84;;;18.60;47.71
57616;BME280;43816;52.054;-9.494;2023-01-30T00:48:26;102262.41;;;18.58;47.46
57616;BME280;43816;52.054;-9.494;2023-01-30T00:48:36;102260.66;;;18.57;47.56
57616;BME280;43816;52.054;-9.494;2023-01-30T00:48:47;102243.41;;;18.46;47.54
57616;BME280;43816;52.054;-9.494;2023-01-30T00:48:57;102273.19;;;18.59;47.60
57616;BME280;43816;52.054;-9.494;2023-01-30T00:49:07;102264.88;;;18.61;47.50
57616;BME280;43816;52.054;-9.494;2023-01-30T00:49:18;102271.03;;;18.63;47.50
57616;BME280;43816;52.054;-9.494;2023-01-30T00:49:29;102267.59;;;18.61;47.76
57616;BME280;43816;52.054;-9.494;2023-01-30T00:49:39;102177.31;;;18.02;47.65
57616;BME280;43816;52.054;-9.494;2023-01-30T00:49:49;102272.91;;;18.62;47.44
57616;BME280;43816;52.054;-9.494;2023-01-30T00:50:00;102263.41;;;18.57;47.64
57616;BME280;43816;52.054;-9.494;2023-01-30T00:50:10;102246.13;;;18.46;47.29
57616;BME280;43816;52.054;-9.494;2023-01-30T00:50:21;102263.25;;;18.58;47.54
57616;BME280;43816;52.054;-9.494;2023-01-30T00:50:34;102266.59;;;18.62;47.43
57616;BME280;43816;52.054;-9.494;2023-01-30T00:50:44;102271.91;;;18.63;47.94
57616;BME280;43816;52.054;-9.494;2023-01-30T00:50:54;102259.22;;;18.53;47.48
57616;BME280;43816;52.054;-9.494;2023-01-30T00:51:06;102252.78;;;18.54;47.44
57616;BME280;43816;52.054;-9.494;2023-01-30T00:51:16;102237.75;;;18.38;47.51
57616;BME280;43816;52.054;-9.494;2023-01-30T00:51:27;102269.47;;;18.60;47.35
57616;BME280;43816;52.054;-9.494;2023-01-30T00:51:37;102268.59;;;18.60;47.44
57616;BME280;43816;52.054;-9.494;2023-01-30T00:51:47;102236.16;;;18.36;47.47
57616;BME280;43816;52.054;-9.494;2023-01-30T00:51:57;102262.53;;;18.56;47.70
57616;BME280;43816;52.054;-9.494;2023-01-30T00:52:08;102267.72;;;18.59;47.45
57616;BME280;43816;52.054;-9.494;2023-01-30T00:52:18;102247.00;;;18.47;47.43
57616;BME280;43816;52.054;-9.494;2023-01-30T00:52:28;102262.41;;;18.58;47.39
57616;BME280;43816;52.054;-9.494;2023-01-30T00:52:39;102257.94;;;18.57;47.37
57616;BME280;43816;52.054;-9.494;2023-01-30T00:52:49;102269.72;;;18.57;47.45
57616;BME280;43816;52.054;-9.494;2023-01-30T00:52:59;102221.06;;;18.31;47.50
57616;BME280;43816;52.054;-9.494;2023-01-30T00:53:14;102219.50;;;18.29;47.59
57616;BME280;43816;52.054;-9.494;2023-01-30T00:53:25;102268.44;;;18.61;47.36
57616;BME280;43816;52.054;-9.494;2023-01-30T00:53:35;102272.31;;;18.59;47.61
57616;BME280;43816;52.054;-9.494;2023-01-30T00:53:46;102259.34;;;18.51;47.64
57616;BME280;43816;52.054;-9.494;2023-01-30T00:53:56;102214.03;;;18.29;47.36
57616;BME280;43816;52.054;-9.494;2023-01-30T00:54:06;102270.59;;;18.58;47.39
57616;BME280;43816;52.054;-9.494;2023-01-30T00:54:17;102259.94;;;18.55;47.59
57616;BME280;43816;52.054;-9.494;2023-01-30T00:54:27;102261.09;;;18.52;47.51
57616;BME280;43816;52.054;-9.494;2023-01-30T00:54:37;102226.38;;;18.33;47.51
57616;BME280;43816;52.054;-9.494;2023-01-30T00:54:47;102250.31;;;18.51;47.24
57616;BME280;43816;52.054;-9.494;2023-01-30T00:54:58;102214.44;;;18.24;47.41
57616;BME280;43816;52.054;-9.494;2023-01-30T00:55:08;102258.25;;;18.54;47.34
57616;BME280;43816;52.054;-9.494;2023-01-30T00:55:18;102245.53;;;18.43;47.54
57616;BME280;43816;52.054;-9.494;2023-01-30T00:55:29;102259.09;;;18.54;47.39
57616;BME280;43816;52.054;-9.494;2023-01-30T00:55:39;102211.72;;;18.24;47.34